ENZV/SVG METAR and TAF weather

Enter ICAO airport designator
Station Type Date Time Source
ENZV METAR 2020/02/19 11:20 UTC NOAA

ENZV 191120Z 11004KT 9999 FEW024 SCT035 06/03 Q1002 NOSIG


Station Type Date Time Source
ENZV Decoded METAR 2020/02/19 11:20 UTC NOAA

Stavanger / Sola, Norway (ENZV) 58-53N 005-38E 9M
Feb 19, 2020 - 06:20 AM EST / 2020.02.19 1120 UTC
Wind: from the ESE (110 degrees) at 5 MPH (4 KT):0
Visibility: greater than 7 mile(s):0
Sky conditions: partly cloudy
Temperature: 42 F (6 C)
Dew Point: 37 F (3 C)
Relative Humidity: 81%
Pressure (altimeter): 29.59 in. Hg (1002 hPa)
ob: ENZV 191120Z 11004KT 9999 FEW024 SCT035 06/03 Q1002 NOSIG
cycle: 11

Station Type Date Time Source
ENZV TAF 2020/02/19 06:57 UTC NOAA

TAF ENZV 190500Z 1906/2006 17008KT 9999 FEW015TCU SCT030
BECMG 1918/1921 16015G25KT
BECMG 2000/2003 16025G35KT 4000 RA BKN010

Example: see airport list